sensor_id;sensor_type;location;lat;lon;timestamp;pressure;altitude;pressure_sealevel;temperature;humidity
60920;BME280;59039;52.108;19.942;2023-04-06T00:00:26;101299.15;;;-0.00;64.10
60920;BME280;59039;52.108;19.942;2023-04-06T00:02:52;101296.20;;;-0.03;64.27
60920;BME280;59039;52.108;19.942;2023-04-06T00:05:18;101296.21;;;-0.03;64.88
60920;BME280;59039;52.108;19.942;2023-04-06T00:07:46;101297.31;;;-0.04;65.14
60920;BME280;59039;52.108;19.942;2023-04-06T00:10:14;101294.30;;;-0.04;65.54
60920;BME280;59039;52.108;19.942;2023-04-06T00:12:45;101290.39;;;-0.04;65.37
60920;BME280;59039;52.108;19.942;2023-04-06T00:15:10;101287.65;;;-0.03;64.87
60920;BME280;59039;52.108;19.942;2023-04-06T00:17:43;101287.79;;;-0.02;65.49
60920;BME280;59039;52.108;19.942;2023-04-06T00:20:11;101291.11;;;0.00;65.58
60920;BME280;59039;52.108;19.942;2023-04-06T00:22:42;101288.20;;;0.02;66.35
60920;BME280;59039;52.108;19.942;2023-04-06T00:25:11;101290.83;;;0.02;65.31
60920;BME280;59039;52.108;19.942;2023-04-06T00:27:37;101292.77;;;0.03;65.42
60920;BME280;59039;52.108;19.942;2023-04-06T00:30:07;101291.35;;;0.03;65.42
60920;BME280;59039;52.108;19.942;2023-04-06T00:32:34;101296.50;;;0.03;65.38
60920;BME280;59039;52.108;19.942;2023-04-06T00:34:59;101292.80;;;0.02;66.26
60920;BME280;59039;52.108;19.942;2023-04-06T00:37:35;101294.23;;;0.03;65.62
60920;BME280;59039;52.108;19.942;2023-04-06T00:40:03;101291.02;;;0.02;65.81
60920;BME280;59039;52.108;19.942;2023-04-06T00:42:31;101286.70;;;0.04;65.68
60920;BME280;59039;52.108;19.942;2023-04-06T00:44:58;101286.82;;;0.05;65.38
60920;BME280;59039;52.108;19.942;2023-04-06T00:47:27;101287.62;;;0.07;65.25
60920;BME280;59039;52.108;19.942;2023-04-06T00:49:58;101280.23;;;0.09;64.90
60920;BME280;59039;52.108;19.942;2023-04-06T00:52:26;101277.43;;;0.12;65.16
60920;BME280;59039;52.108;19.942;2023-04-06T00:54:52;101271.78;;;0.15;65.50
60920;BME280;59039;52.108;19.942;2023-04-06T00:57:17;101267.53;;;0.18;65.20
60920;BME280;59039;52.108;19.942;2023-04-06T00:59:44;101266.68;;;0.21;65.33
60920;BME280;59039;52.108;19.942;2023-04-06T01:02:18;101264.07;;;0.24;65.25
60920;BME280;59039;52.108;19.942;2023-04-06T01:04:44;101259.52;;;0.26;65.66
60920;BME280;59039;52.108;19.942;2023-04-06T01:07:22;101252.65;;;0.28;65.45
60920;BME280;59039;52.108;19.942;2023-04-06T01:09:52;101248.13;;;0.30;65.14
60920;BME280;59039;52.108;19.942;2023-04-06T01:12:28;101251.06;;;0.32;65.42
60920;BME280;59039;52.108;19.942;2023-04-06T01:14:53;101256.34;;;0.33;65.25
60920;BME280;59039;52.108;19.942;2023-04-06T01:17:18;101254.91;;;0.33;65.22
60920;BME280;59039;52.108;19.942;2023-04-06T01:19:44;101251.13;;;0.34;65.44
60920;BME280;59039;52.108;19.942;2023-04-06T01:22:18;101254.83;;;0.35;65.94
60920;BME280;59039;52.108;19.942;2023-04-06T01:24:44;101254.61;;;0.36;65.98
60920;BME280;59039;52.108;19.942;2023-04-06T01:27:13;101255.22;;;0.38;65.70
60920;BME280;59039;52.108;19.942;2023-04-06T01:29:41;101254.77;;;0.40;66.08
60920;BME280;59039;52.108;19.942;2023-04-06T01:32:07;101252.92;;;0.42;65.28
60920;BME280;59039;52.108;19.942;2023-04-06T01:34:33;101253.23;;;0.43;65.61
60920;BME280;59039;52.108;19.942;2023-04-06T01:36:58;101249.71;;;0.42;65.88
60920;BME280;59039;52.108;19.942;2023-04-06T01:39:27;101250.94;;;0.42;65.41
60920;BME280;59039;52.108;19.942;2023-04-06T01:41:53;101254.45;;;0.43;65.27
60920;BME280;59039;52.108;19.942;2023-04-06T01:44:19;101251.96;;;0.43;65.52
60920;BME280;59039;52.108;19.942;2023-04-06T01:47:04;101248.75;;;0.43;65.50
60920;BME280;59039;52.108;19.942;2023-04-06T01:49:30;101249.27;;;0.44;66.16
60920;BME280;59039;52.108;19.942;2023-04-06T01:52:00;101248.56;;;0.44;66.18
60920;BME280;59039;52.108;19.942;2023-04-06T01:54:25;101249.25;;;0.44;66.12
60920;BME280;59039;52.108;19.942;2023-04-06T01:56:51;101243.94;;;0.43;66.03
60920;BME280;59039;52.108;19.942;2023-04-06T01:59:17;101242.86;;;0.43;65.83
60920;BME280;59039;52.108;19.942;2023-04-06T02:01:42;101239.53;;;0.42;66.19
60920;BME280;59039;52.108;19.942;2023-04-06T02:04:07;101238.67;;;0.42;66.12
60920;BME280;59039;52.108;19.942;2023-04-06T02:06:33;101235.54;;;0.40;66.42
60920;BME280;59039;52.108;19.942;2023-04-06T02:09:01;101235.44;;;0.38;66.61
60920;BME280;59039;52.108;19.942;2023-04-06T02:11:26;101232.00;;;0.35;66.15
60920;BME280;59039;52.108;19.942;2023-04-06T02:13:52;101231.34;;;0.34;66.32
60920;BME280;59039;52.108;19.942;2023-04-06T02:16:22;101228.52;;;0.33;66.21
60920;BME280;59039;52.108;19.942;2023-04-06T02:18:49;101228.05;;;0.32;66.22
60920;BME280;59039;52.108;19.942;2023-04-06T02:21:15;101228.94;;;0.32;66.74
60920;BME280;59039;52.108;19.942;2023-04-06T02:23:43;101230.13;;;0.33;66.82
60920;BME280;59039;52.108;19.942;2023-04-06T02:26:08;101226.48;;;0.35;66.69
60920;BME280;59039;52.108;19.942;2023-04-06T02:28:34;101223.21;;;0.36;66.62
60920;BME280;59039;52.108;19.942;2023-04-06T02:31:02;101222.95;;;0.39;67.00
60920;BME280;59039;52.108;19.942;2023-04-06T02:33:29;101224.27;;;0.41;67.27
60920;BME280;59039;52.108;19.942;2023-04-06T02:35:55;101224.85;;;0.44;67.18
60920;BME280;59039;52.108;19.942;2023-04-06T02:38:20;101218.31;;;0.46;66.63
60920;BME280;59039;52.108;19.942;2023-04-06T02:40:46;101219.29;;;0.48;66.33
60920;BME280;59039;52.108;19.942;2023-04-06T02:43:16;101220.61;;;0.50;66.27
60920;BME280;59039;52.108;19.942;2023-04-06T02:45:41;101218.52;;;0.53;66.56
60920;BME280;59039;52.108;19.942;2023-04-06T02:48:07;101222.50;;;0.56;66.65
60920;BME280;59039;52.108;19.942;2023-04-06T02:50:32;101223.79;;;0.59;66.21
60920;BME280;59039;52.108;19.942;2023-04-06T02:52:58;101222.27;;;0.61;66.65
60920;BME280;59039;52.108;19.942;2023-04-06T02:55:23;101216.64;;;0.63;66.35
60920;BME280;59039;52.108;19.942;2023-04-06T02:57:48;101219.25;;;0.65;66.68
60920;BME280;59039;52.108;19.942;2023-04-06T03:00:14;101218.30;;;0.66;66.91
60920;BME280;59039;52.108;19.942;2023-04-06T03:02:40;101218.05;;;0.67;66.88
60920;BME280;59039;52.108;19.942;2023-04-06T03:05:06;101218.33;;;0.69;67.01
60920;BME280;59039;52.108;19.942;2023-04-06T03:07:39;101223.24;;;0.70;67.65
60920;BME280;59039;52.108;19.942;2023-04-06T03:10:08;101226.27;;;0.71;67.50
60920;BME280;59039;52.108;19.942;2023-04-06T03:12:33;101226.03;;;0.72;67.57
60920;BME280;59039;52.108;19.942;2023-04-06T03:14:59;101223.79;;;0.74;67.04
60920;BME280;59039;52.108;19.942;2023-04-06T03:17:27;101225.30;;;0.76;67.43
60920;BME280;59039;52.108;19.942;2023-04-06T03:19:53;101225.95;;;0.77;67.61
60920;BME280;59039;52.108;19.942;2023-04-06T03:22:19;101225.89;;;0.79;67.87
60920;BME280;59039;52.108;19.942;2023-04-06T03:24:45;101225.64;;;0.80;67.84
60920;BME280;59039;52.108;19.942;2023-04-06T03:27:10;101228.63;;;0.81;67.91
60920;BME280;59039;52.108;19.942;2023-04-06T03:29:35;101228.32;;;0.84;67.62
60920;BME280;59039;52.108;19.942;2023-04-06T03:32:04;101231.47;;;0.85;67.87
60920;BME280;59039;52.108;19.942;2023-04-06T03:34:29;101234.63;;;0.86;68.16
60920;BME280;59039;52.108;19.942;2023-04-06T03:36:58;101234.06;;;0.87;68.17
60920;BME280;59039;52.108;19.942;2023-04-06T03:39:26;101235.98;;;0.88;68.25
60920;BME280;59039;52.108;19.942;2023-04-06T03:42:03;101240.53;;;0.90;68.33
60920;BME280;59039;52.108;19.942;2023-04-06T03:44:28;101239.93;;;0.91;68.51
60920;BME280;59039;52.108;19.942;2023-04-06T03:46:54;101234.86;;;0.93;68.33
60920;BME280;59039;52.108;19.942;2023-04-06T03:49:19;101234.73;;;0.96;67.80
60920;BME280;59039;52.108;19.942;2023-04-06T03:51:45;101234.10;;;0.98;67.63
60920;BME280;59039;52.108;19.942;2023-04-06T03:54:10;101232.05;;;0.99;67.51
60920;BME280;59039;52.108;19.942;2023-04-06T03:56:38;101231.44;;;1.01;67.76
60920;BME280;59039;52.108;19.942;2023-04-06T03:59:05;101231.41;;;1.01;68.05
60920;BME280;59039;52.108;19.942;2023-04-06T04:01:31;101234.67;;;1.01;67.90
60920;BME280;59039;52.108;19.942;2023-04-06T04:03:56;101231.08;;;1.01;68.40
60920;BME280;59039;52.108;19.942;2023-04-06T04:06:22;101230.33;;;1.02;67.97
60920;BME280;59039;52.108;19.942;2023-04-06T04:08:47;101226.02;;;1.02;68.02
60920;BME280;59039;52.108;19.942;2023-04-06T04:11:16;101230.47;;;1.03;67.14
60920;BME280;59039;52.108;19.942;2023-04-06T04:13:41;101230.48;;;1.02;67.18
60920;BME280;59039;52.108;19.942;2023-04-06T04:16:07;101233.25;;;1.04;66.81
60920;BME280;59039;52.108;19.942;2023-04-06T04:18:32;101230.98;;;1.07;66.95
60920;BME280;59039;52.108;19.942;2023-04-06T04:20:57;101235.33;;;1.09;66.92
60920;BME280;59039;52.108;19.942;2023-04-06T04:23:23;101233.96;;;1.11;66.67
60920;BME280;59039;52.108;19.942;2023-04-06T04:25:48;101233.60;;;1.12;65.88
60920;BME280;59039;52.108;19.942;2023-04-06T04:28:14;101233.16;;;1.13;65.56
60920;BME280;59039;52.108;19.942;2023-04-06T04:30:48;101236.06;;;1.16;65.54
60920;BME280;59039;52.108;19.942;2023-04-06T04:33:14;101234.85;;;1.19;65.38
60920;BME280;59039;52.108;19.942;2023-04-06T04:35:39;101234.42;;;1.20;64.82
60920;BME280;59039;52.108;19.942;2023-04-06T04:38:07;101230.69;;;1.24;64.69
60920;BME280;59039;52.108;19.942;2023-04-06T04:40:33;101228.58;;;1.27;64.69
60920;BME280;59039;52.108;19.942;2023-04-06T04:42:58;101225.33;;;1.28;64.81
60920;BME280;59039;52.108;19.942;2023-04-06T04:45:27;101226.81;;;1.30;64.95
60920;BME280;59039;52.108;19.942;2023-04-06T04:47:52;101223.70;;;1.32;64.99
60920;BME280;59039;52.108;19.942;2023-04-06T04:50:41;101224.50;;;1.33;65.00
60920;BME280;59039;52.108;19.942;2023-04-06T04:53:06;101219.95;;;1.35;64.78
60920;BME280;59039;52.108;19.942;2023-04-06T04:55:34;101220.87;;;1.38;64.41
60920;BME280;59039;52.108;19.942;2023-04-06T04:57:59;101223.06;;;1.41;64.52
60920;BME280;59039;52.108;19.942;2023-04-06T05:00:24;101223.45;;;1.44;64.26
60920;BME280;59039;52.108;19.942;2023-04-06T05:02:57;101225.55;;;1.44;64.18
60920;BME280;59039;52.108;19.942;2023-04-06T05:05:23;101224.09;;;1.45;64.09
60920;BME280;59039;52.108;19.942;2023-04-06T05:07:51;101225.43;;;1.47;64.05
60920;BME280;59039;52.108;19.942;2023-04-06T05:10:16;101224.29;;;1.48;63.93
60920;BME280;59039;52.108;19.942;2023-04-06T05:12:52;101225.03;;;1.51;64.00
60920;BME280;59039;52.108;19.942;2023-04-06T05:15:17;101226.34;;;1.54;64.08
60920;BME280;59039;52.108;19.942;2023-04-06T05:17:43;101223.09;;;1.55;63.95
60920;BME280;59039;52.108;19.942;2023-04-06T05:20:08;101223.38;;;1.56;63.94
60920;BME280;59039;52.108;19.942;2023-04-06T05:22:37;101222.20;;;1.58;63.92
60920;BME280;59039;52.108;19.942;2023-04-06T05:25:02;101226.16;;;1.61;63.85
60920;BME280;59039;52.108;19.942;2023-04-06T05:27:28;101224.05;;;1.63;63.77
60920;BME280;59039;52.108;19.942;2023-04-06T05:30:03;101225.42;;;1.65;63.60
60920;BME280;59039;52.108;19.942;2023-04-06T05:32:28;101219.24;;;1.67;63.43
60920;BME280;59039;52.108;19.942;2023-04-06T05:34:59;101218.79;;;1.69;63.61
60920;BME280;59039;52.108;19.942;2023-04-06T05:37:25;101220.63;;;1.72;63.54
60920;BME280;59039;52.108;19.942;2023-04-06T05:39:50;101218.32;;;1.75;63.57
60920;BME280;59039;52.108;19.942;2023-04-06T05:42:16;101214.73;;;1.78;63.92
60920;BME280;59039;52.108;19.942;2023-04-06T05:44:41;101213.23;;;1.83;63.87
60920;BME280;59039;52.108;19.942;2023-04-06T05:47:07;101209.37;;;1.85;64.06
60920;BME280;59039;52.108;19.942;2023-04-06T05:49:32;101207.42;;;1.89;64.22
60920;BME280;59039;52.108;19.942;2023-04-06T05:52:01;101203.85;;;1.92;64.30
60920;BME280;59039;52.108;19.942;2023-04-06T05:54:32;101202.23;;;1.95;64.25
60920;BME280;59039;52.108;19.942;2023-04-06T05:56:58;101201.27;;;2.00;64.27
60920;BME280;59039;52.108;19.942;2023-04-06T05:59:34;101203.14;;;2.05;64.08
60920;BME280;59039;52.108;19.942;2023-04-06T06:02:02;101203.80;;;2.10;62.99
60920;BME280;59039;52.108;19.942;2023-04-06T06:04:30;101205.02;;;2.14;63.25
60920;BME280;59039;52.108;19.942;2023-04-06T06:06:56;101208.13;;;2.19;63.26
60920;BME280;59039;52.108;19.942;2023-04-06T06:09:21;101203.16;;;2.25;63.06
60920;BME280;59039;52.108;19.942;2023-04-06T06:11:47;101198.12;;;2.29;62.46
60920;BME280;59039;52.108;19.942;2023-04-06T06:14:13;101200.21;;;2.34;62.44
60920;BME280;59039;52.108;19.942;2023-04-06T06:16:38;101199.06;;;2.38;62.17
60920;BME280;59039;52.108;19.942;2023-04-06T06:19:04;101201.71;;;2.42;61.99
60920;BME280;59039;52.108;19.942;2023-04-06T06:21:29;101190.86;;;2.48;62.10
60920;BME280;59039;52.108;19.942;2023-04-06T06:23:54;101186.08;;;2.53;62.47
60920;BME280;59039;52.108;19.942;2023-04-06T06:26:22;101185.77;;;2.59;62.55
60920;BME280;59039;52.108;19.942;2023-04-06T06:28:50;101192.89;;;2.66;62.32
60920;BME280;59039;52.108;19.942;2023-04-06T06:31:15;101186.38;;;2.74;61.84
60920;BME280;59039;52.108;19.942;2023-04-06T06:33:46;101187.14;;;2.82;61.67
60920;BME280;59039;52.108;19.942;2023-04-06T06:36:14;101187.42;;;2.90;61.43
60920;BME280;59039;52.108;19.942;2023-04-06T06:38:40;101188.65;;;2.97;60.96
60920;BME280;59039;52.108;19.942;2023-04-06T06:41:05;101190.10;;;3.03;60.98
60920;BME280;59039;52.108;19.942;2023-04-06T06:43:30;101188.36;;;3.08;60.53
60920;BME280;59039;52.108;19.942;2023-04-06T06:45:56;101185.91;;;3.10;59.23
60920;BME280;59039;52.108;19.942;2023-04-06T06:48:21;101185.92;;;3.13;59.78
60920;BME280;59039;52.108;19.942;2023-04-06T06:50:48;101186.91;;;3.18;59.78
60920;BME280;59039;52.108;19.942;2023-04-06T06:53:13;101183.04;;;3.20;58.89
60920;BME280;59039;52.108;19.942;2023-04-06T06:55:38;101185.82;;;3.22;58.93
60920;BME280;59039;52.108;19.942;2023-04-06T06:58:07;101182.54;;;3.25;58.94
60920;BME280;59039;52.108;19.942;2023-04-06T07:00:35;101179.48;;;3.29;58.14
60920;BME280;59039;52.108;19.942;2023-04-06T07:03:00;101179.04;;;3.33;59.20
60920;BME280;59039;52.108;19.942;2023-04-06T07:05:48;101179.94;;;3.40;58.72
60920;BME280;59039;52.108;19.942;2023-04-06T07:08:14;101173.05;;;3.47;58.98
60920;BME280;59039;52.108;19.942;2023-04-06T07:10:39;101173.70;;;3.54;57.78
60920;BME280;59039;52.108;19.942;2023-04-06T07:13:04;101172.13;;;3.60;57.05
60920;BME280;59039;52.108;19.942;2023-04-06T07:15:30;101171.81;;;3.67;58.78
60920;BME280;59039;52.108;19.942;2023-04-06T07:17:55;101164.77;;;3.81;59.32
60920;BME280;59039;52.108;19.942;2023-04-06T07:20:20;101165.33;;;3.98;57.33
60920;BME280;59039;52.108;19.942;2023-04-06T07:22:46;101161.26;;;4.17;58.12
60920;BME280;59039;52.108;19.942;2023-04-06T07:25:11;101157.20;;;4.36;56.97
60920;BME280;59039;52.108;19.942;2023-04-06T07:27:39;101160.64;;;4.55;56.28
60920;BME280;59039;52.108;19.942;2023-04-06T07:30:08;101155.60;;;4.70;54.02
60920;BME280;59039;52.108;19.942;2023-04-06T07:32:33;101157.58;;;4.81;56.16
60920;BME280;59039;52.108;19.942;2023-04-06T07:34:59;101155.85;;;4.91;55.54
60920;BME280;59039;52.108;19.942;2023-04-06T07:37:24;101156.90;;;4.99;55.19
60920;BME280;59039;52.108;19.942;2023-04-06T07:39:50;101158.22;;;5.04;54.77
60920;BME280;59039;52.108;19.942;2023-04-06T07:42:15;101159.19;;;5.06;55.57
60920;BME280;59039;52.108;19.942;2023-04-06T07:44:40;101162.94;;;5.06;54.92
60920;BME280;59039;52.108;19.942;2023-04-06T07:47:08;101168.96;;;5.04;53.78
60920;BME280;59039;52.108;19.942;2023-04-06T07:49:34;101165.66;;;5.00;53.40
60920;BME280;59039;52.108;19.942;2023-04-06T07:52:03;101163.08;;;4.96;54.92
60920;BME280;59039;52.108;19.942;2023-04-06T07:54:38;101160.77;;;4.93;54.87
60920;BME280;59039;52.108;19.942;2023-04-06T07:57:08;101161.85;;;4.90;55.41
60920;BME280;59039;52.108;19.942;2023-04-06T07:59:33;101160.34;;;4.85;54.35
60920;BME280;59039;52.108;19.942;2023-04-06T08:01:59;101159.48;;;4.82;55.02
60920;BME280;59039;52.108;19.942;2023-04-06T08:04:24;101158.66;;;4.78;53.82
60920;BME280;59039;52.108;19.942;2023-04-06T08:06:50;101156.64;;;4.73;53.19
60920;BME280;59039;52.108;19.942;2023-04-06T08:09:15;101156.06;;;4.71;53.32
60920;BME280;59039;52.108;19.942;2023-04-06T08:11:54;101157.73;;;4.65;51.91
60920;BME280;59039;52.108;19.942;2023-04-06T08:14:20;101150.05;;;4.64;53.77
60920;BME280;59039;52.108;19.942;2023-04-06T08:16:45;101150.27;;;4.66;53.22
60920;BME280;59039;52.108;19.942;2023-04-06T08:19:11;101153.48;;;4.70;52.30
60920;BME280;59039;52.108;19.942;2023-04-06T08:21:36;101152.66;;;4.71;52.09
60920;BME280;59039;52.108;19.942;2023-04-06T08:24:02;101145.48;;;4.73;52.81
60920;BME280;59039;52.108;19.942;2023-04-06T08:26:27;101144.68;;;4.77;53.04
60920;BME280;59039;52.108;19.942;2023-04-06T08:28:53;101142.70;;;4.83;52.76
60920;BME280;59039;52.108;19.942;2023-04-06T08:31:19;101137.98;;;4.87;51.20
60920;BME280;59039;52.108;19.942;2023-04-06T08:33:44;101136.57;;;4.89;50.86
60920;BME280;59039;52.108;19.942;2023-04-06T08:36:11;101137.19;;;4.91;51.21
60920;BME280;59039;52.108;19.942;2023-04-06T08:38:38;101133.02;;;4.94;53.10
60920;BME280;59039;52.108;19.942;2023-04-06T08:41:29;101137.23;;;4.98;53.55
60920;BME280;59039;52.108;19.942;2023-04-06T08:44:02;101136.61;;;5.02;53.22
60920;BME280;59039;52.108;19.942;2023-04-06T08:46:29;101132.75;;;5.03;51.27
60920;BME280;59039;52.108;19.942;2023-04-06T08:48:58;101131.79;;;5.07;52.33
60920;BME280;59039;52.108;19.942;2023-04-06T08:51:27;101133.92;;;5.13;53.51
60920;BME280;59039;52.108;19.942;2023-04-06T08:53:56;101137.58;;;5.20;52.83
60920;BME280;59039;52.108;19.942;2023-04-06T08:56:23;101136.95;;;5.24;52.96
60920;BME280;59039;52.108;19.942;2023-04-06T08:58:49;101133.21;;;5.27;52.52
60920;BME280;59039;52.108;19.942;2023-04-06T09:01:17;101124.48;;;5.28;51.12
60920;BME280;59039;52.108;19.942;2023-04-06T09:03:46;101126.37;;;5.29;51.22
60920;BME280;59039;52.108;19.942;2023-04-06T09:06:12;101128.73;;;5.32;51.91
60920;BME280;59039;52.108;19.942;2023-04-06T09:08:39;101131.98;;;5.34;51.26
60920;BME280;59039;52.108;19.942;2023-04-06T09:11:10;101128.83;;;5.35;50.93
60920;BME280;59039;52.108;19.942;2023-04-06T09:13:46;101126.14;;;5.35;51.26
60920;BME280;59039;52.108;19.942;2023-04-06T09:16:15;101124.53;;;5.32;50.82
60920;BME280;59039;52.108;19.942;2023-04-06T09:18:41;101121.58;;;5.33;52.51
60920;BME280;59039;52.108;19.942;2023-04-06T09:21:07;101123.02;;;5.36;52.35
60920;BME280;59039;52.108;19.942;2023-04-06T09:23:33;101121.30;;;5.38;51.90
60920;BME280;59039;52.108;19.942;2023-04-06T09:26:10;101113.86;;;5.41;52.13
60920;BME280;59039;52.108;19.942;2023-04-06T09:28:50;101118.70;;;5.44;51.47
60920;BME280;59039;52.108;19.942;2023-04-06T09:31:26;101115.14;;;5.46;51.16
60920;BME280;59039;52.108;19.942;2023-04-06T09:33:52;101113.63;;;5.50;52.02
60920;BME280;59039;52.108;19.942;2023-04-06T09:36:18;101106.77;;;5.51;50.98
60920;BME280;59039;52.108;19.942;2023-04-06T09:38:58;101108.98;;;5.52;51.42
60920;BME280;59039;52.108;19.942;2023-04-06T09:41:29;101111.02;;;5.57;51.81
60920;BME280;59039;52.108;19.942;2023-04-06T09:44:05;101106.00;;;5.59;51.67
60920;BME280;59039;52.108;19.942;2023-04-06T09:46:33;101106.14;;;5.60;52.29
60920;BME280;59039;52.108;19.942;2023-04-06T09:49:03;101102.18;;;5.62;52.78
60920;BME280;59039;52.108;19.942;2023-04-06T09:51:36;101095.02;;;5.64;52.07
60920;BME280;59039;52.108;19.942;2023-04-06T09:54:02;101097.37;;;5.67;52.94
60920;BME280;59039;52.108;19.942;2023-04-06T09:56:30;101096.08;;;5.68;52.63
60920;BME280;59039;52.108;19.942;2023-04-06T09:59:01;101097.71;;;5.67;52.39
60920;BME280;59039;52.108;19.942;2023-04-06T10:01:28;101098.21;;;5.65;52.31
60920;BME280;59039;52.108;19.942;2023-04-06T10:04:13;101095.01;;;5.62;52.83
60920;BME280;59039;52.108;19.942;2023-04-06T10:06:46;101089.88;;;5.58;51.96
60920;BME280;59039;52.108;19.942;2023-04-06T10:09:11;101091.34;;;5.55;52.35
60920;BME280;59039;52.108;19.942;2023-04-06T10:11:47;101088.36;;;5.57;52.89
60920;BME280;59039;52.108;19.942;2023-04-06T10:14:13;101088.20;;;5.59;53.00
60920;BME280;59039;52.108;19.942;2023-04-06T10:16:39;101085.42;;;5.60;52.09
60920;BME280;59039;52.108;19.942;2023-04-06T10:19:16;101085.02;;;5.61;52.43
60920;BME280;59039;52.108;19.942;2023-04-06T10:21:45;101086.21;;;5.59;51.63
60920;BME280;59039;52.108;19.942;2023-04-06T10:24:13;101082.32;;;5.53;51.98
60920;BME280;59039;52.108;19.942;2023-04-06T10:26:39;101074.14;;;5.49;52.79
60920;BME280;59039;52.108;19.942;2023-04-06T10:29:04;101075.36;;;5.44;52.43
60920;BME280;59039;52.108;19.942;2023-04-06T10:31:30;101071.69;;;5.40;52.73
60920;BME280;59039;52.108;19.942;2023-04-06T10:33:57;101068.58;;;5.39;52.96
60920;BME280;59039;52.108;19.942;2023-04-06T10:36:25;101071.23;;;5.36;53.04
60920;BME280;59039;52.108;19.942;2023-04-06T10:38:56;101072.44;;;5.37;53.87
60920;BME280;59039;52.108;19.942;2023-04-06T10:41:21;101070.63;;;5.40;54.14
60920;BME280;59039;52.108;19.942;2023-04-06T10:43:55;101068.50;;;5.42;54.33
60920;BME280;59039;52.108;19.942;2023-04-06T10:46:25;101061.48;;;5.42;54.25
60920;BME280;59039;52.108;19.942;2023-04-06T10:48:51;101062.65;;;5.43;55.05
60920;BME280;59039;52.108;19.942;2023-04-06T10:51:17;101057.77;;;5.47;55.23
60920;BME280;59039;52.108;19.942;2023-04-06T10:53:47;101053.48;;;5.52;55.37
60920;BME280;59039;52.108;19.942;2023-04-06T10:56:15;101049.77;;;5.56;55.46
60920;BME280;59039;52.108;19.942;2023-04-06T10:58:48;101051.69;;;5.57;55.13
60920;BME280;59039;52.108;19.942;2023-04-06T11:01:19;101046.70;;;5.59;55.61
60920;BME280;59039;52.108;19.942;2023-04-06T11:03:46;101043.38;;;5.62;55.87
60920;BME280;59039;52.108;19.942;2023-04-06T11:06:18;101042.14;;;5.64;55.45
60920;BME280;59039;52.108;19.942;2023-04-06T11:08:43;101047.86;;;5.65;55.65
60920;BME280;59039;52.108;19.942;2023-04-06T11:11:11;101042.61;;;5.66;55.96
60920;BME280;59039;52.108;19.942;2023-04-06T11:13:41;101036.48;;;5.66;57.02
60920;BME280;59039;52.108;19.942;2023-04-06T11:16:07;101032.88;;;5.69;57.59
60920;BME280;59039;52.108;19.942;2023-04-06T11:18:36;101027.42;;;5.70;57.78
60920;BME280;59039;52.108;19.942;2023-04-06T11:21:02;101027.23;;;5.72;57.56
60920;BME280;59039;52.108;19.942;2023-04-06T11:23:27;101024.27;;;5.73;57.35
60920;BME280;59039;52.108;19.942;2023-04-06T11:25:53;101020.70;;;5.76;57.29
60920;BME280;59039;52.108;19.942;2023-04-06T11:28:19;101017.17;;;5.77;56.82
60920;BME280;59039;52.108;19.942;2023-04-06T11:30:46;101022.11;;;5.78;56.43
60920;BME280;59039;52.108;19.942;2023-04-06T11:33:20;101023.77;;;5.78;56.26
60920;BME280;59039;52.108;19.942;2023-04-06T11:35:45;101022.41;;;5.74;56.61
60920;BME280;59039;52.108;19.942;2023-04-06T11:38:11;101014.33;;;5.72;56.66
60920;BME280;59039;52.108;19.942;2023-04-06T11:40:36;101009.05;;;5.70;57.06
60920;BME280;59039;52.108;19.942;2023-04-06T11:43:03;101004.10;;;5.69;57.18
60920;BME280;59039;52.108;19.942;2023-04-06T11:45:39;101004.92;;;5.70;57.46
60920;BME280;59039;52.108;19.942;2023-04-06T11:48:06;101000.46;;;5.72;57.62
60920;BME280;59039;52.108;19.942;2023-04-06T11:50:32;101001.94;;;5.71;57.30
60920;BME280;59039;52.108;19.942;2023-04-06T11:53:02;100998.11;;;5.70;57.42
60920;BME280;59039;52.108;19.942;2023-04-06T11:55:27;100995.20;;;5.68;57.38
60920;BME280;59039;52.108;19.942;2023-04-06T11:57:53;100997.63;;;5.64;57.21
60920;BME280;59039;52.108;19.942;2023-04-06T12:00:18;100992.97;;;5.58;57.79
60920;BME280;59039;52.108;19.942;2023-04-06T12:02:46;100993.48;;;5.56;58.19
60920;BME280;59039;52.108;19.942;2023-04-06T12:05:11;100994.42;;;5.53;58.54
60920;BME280;59039;52.108;19.942;2023-04-06T12:07:37;100994.29;;;5.52;59.11
60920;BME280;59039;52.108;19.942;2023-04-06T12:10:03;100993.30;;;5.49;59.82
60920;BME280;59039;52.108;19.942;2023-04-06T12:12:28;100989.57;;;5.46;60.35
60920;BME280;59039;52.108;19.942;2023-04-06T12:14:55;100988.48;;;5.43;60.25
60920;BME280;59039;52.108;19.942;2023-04-06T12:17:20;100989.65;;;5.41;61.93
60920;BME280;59039;52.108;19.942;2023-04-06T12:19:46;100995.28;;;5.41;62.99
60920;BME280;59039;52.108;19.942;2023-04-06T12:22:11;100996.75;;;5.40;63.63
60920;BME280;59039;52.108;19.942;2023-04-06T12:24:37;101000.00;;;5.35;65.05
60920;BME280;59039;52.108;19.942;2023-04-06T12:27:03;101003.77;;;5.27;67.94
60920;BME280;59039;52.108;19.942;2023-04-06T12:29:28;101004.34;;;5.24;66.99
60920;BME280;59039;52.108;19.942;2023-04-06T12:31:54;101003.41;;;5.19;67.74
60920;BME280;59039;52.108;19.942;2023-04-06T12:34:19;101005.81;;;5.13;67.36
60920;BME280;59039;52.108;19.942;2023-04-06T12:36:45;101006.34;;;5.09;68.63
60920;BME280;59039;52.108;19.942;2023-04-06T12:39:10;101003.87;;;4.97;69.61
60920;BME280;59039;52.108;19.942;2023-04-06T12:41:35;101006.44;;;4.91;69.13
60920;BME280;59039;52.108;19.942;2023-04-06T12:44:01;101002.86;;;4.86;70.11
60920;BME280;59039;52.108;19.942;2023-04-06T12:46:26;101001.56;;;4.78;70.42
60920;BME280;59039;52.108;19.942;2023-04-06T12:48:54;101000.31;;;4.70;69.63
60920;BME280;59039;52.108;19.942;2023-04-06T12:51:19;100997.60;;;4.65;69.21